Time;durP1;ratioP1;P1;durP2;ratioP2;P2;SDS_P1;SDS_P2;PMS_P1;PMS_P2;Temp;Humidity;BMP_temperature;BMP_pressure;BME280_temperature;BME280_humidity;BME280_pressure;Samples;Min_cycle;Max_cycle;Signal;HPM_P1;HPM_P2
2021/11/27 00:00:08;;;;;;;10.63;6.20;;;2.30;99.90;;;;;;5006761;28;20098;-70
2021/11/27 00:02:34;;;;;;;10.18;5.90;;;2.30;99.90;;;;;;5073758;28;20509;-70
2021/11/27 00:04:59;;;;;;;9.98;5.75;;;2.40;99.90;;;;;;5066960;28;20026;-70
2021/11/27 00:07:25;;;;;;;10.80;6.15;;;2.40;99.90;;;;;;4999509;28;20404;-70
2021/11/27 00:09:51;;;;;;;10.18;6.00;;;2.30;99.90;;;;;;5008893;28;20081;-69
2021/11/27 00:12:16;;;;;;;7.55;5.20;;;2.40;99.90;;;;;;5009430;28;20026;-70
2021/11/27 00:14:42;;;;;;;9.50;5.57;;;2.40;99.90;;;;;;5070040;28;20589;-70
2021/11/27 00:17:08;;;;;;;8.93;5.50;;;2.40;99.90;;;;;;5076488;28;20186;-70
2021/11/27 00:19:36;;;;;;;9.25;5.50;;;2.40;99.90;;;;;;5077346;28;20034;-70
2021/11/27 00:22:02;;;;;;;8.38;5.22;;;2.40;99.90;;;;;;5008532;28;20108;-70
2021/11/27 00:24:28;;;;;;;7.75;5.20;;;2.40;99.90;;;;;;5009772;28;20034;-68
2021/11/27 00:26:53;;;;;;;11.25;4.90;;;2.40;99.90;;;;;;5077911;28;20026;-71
2021/11/27 00:29:19;;;;;;;8.73;4.90;;;2.40;99.90;;;;;;5005050;28;20110;-71
2021/11/27 00:31:46;;;;;;;7.15;4.68;;;2.40;99.80;;;;;;5005104;28;20033;-69
2021/11/27 00:34:13;;;;;;;6.47;4.18;;;2.50;99.80;;;;;;5009349;28;20030;-70
2021/11/27 00:36:39;;;;;;;8.80;5.22;;;2.40;99.80;;;;;;4996267;28;20018;-69
2021/11/27 00:39:05;;;;;;;6.50;3.92;;;2.50;99.80;;;;;;5003789;28;20041;-70
2021/11/27 00:41:31;;;;;;;7.00;4.40;;;2.50;99.80;;;;;;5008511;28;20030;-69
2021/11/27 00:43:56;;;;;;;8.82;4.53;;;2.50;99.70;;;;;;5005930;28;20133;-69
2021/11/27 00:46:22;;;;;;;6.78;4.13;;;2.60;99.70;;;;;;5063503;28;20026;-70
2021/11/27 00:48:48;;;;;;;7.93;4.25;;;2.60;99.70;;;;;;5008021;28;20418;-69
2021/11/27 00:51:18;;;;;;;6.70;4.28;;;2.60;99.60;;;;;;5009610;28;20022;-69
2021/11/27 00:53:45;;;;;;;5.80;3.92;;;2.60;99.60;;;;;;5008855;28;20026;-70
2021/11/27 00:56:11;;;;;;;5.57;4.20;;;2.70;99.50;;;;;;5009490;28;20030;-70
2021/11/27 00:58:37;;;;;;;5.82;3.75;;;2.70;99.50;;;;;;5075258;28;20110;-70
2021/11/27 01:01:07;;;;;;;6.10;3.80;;;2.70;99.50;;;;;;5004993;28;20133;-70
2021/11/27 01:03:35;;;;;;;10.20;4.38;;;2.70;99.40;;;;;;5003850;28;20500;-70
2021/11/27 01:06:03;;;;;;;7.13;4.38;;;2.70;99.40;;;;;;4989524;28;20023;-70
2021/11/27 01:08:29;;;;;;;5.10;4.03;;;2.80;99.40;;;;;;5005903;28;20018;-70
2021/11/27 01:11:04;;;;;;;6.65;4.03;;;2.80;99.40;;;;;;5077057;28;20022;-69
2021/11/27 01:13:31;;;;;;;6.05;4.30;;;2.80;99.30;;;;;;5007253;28;20034;-70
2021/11/27 01:15:57;;;;;;;5.78;3.53;;;2.80;99.30;;;;;;5059470;28;20034;-70
2021/11/27 01:18:23;;;;;;;6.60;3.90;;;2.80;99.30;;;;;;5005003;28;20469;-70
2021/11/27 01:20:55;;;;;;;5.65;3.72;;;2.80;99.20;;;;;;5009195;28;20034;-70
2021/11/27 01:23:21;;;;;;;5.47;3.70;;;2.80;99.20;;;;;;5008559;28;20444;-69
2021/11/27 01:25:48;;;;;;;6.05;3.58;;;2.90;99.20;;;;;;5008747;28;20454;-70
2021/11/27 01:28:16;;;;;;;4.95;3.25;;;2.80;99.10;;;;;;5007605;28;20104;-69
2021/11/27 01:30:46;;;;;;;5.25;3.67;;;2.90;99.10;;;;;;5004827;28;20526;-70
2021/11/27 01:33:12;;;;;;;5.82;3.72;;;2.90;99.00;;;;;;5001629;28;20022;-70
2021/11/27 01:35:38;;;;;;;4.88;3.47;;;2.90;99.00;;;;;;5005767;28;20025;-69
2021/11/27 01:38:05;;;;;;;7.18;3.50;;;2.90;99.00;;;;;;5002583;28;20030;-70
2021/11/27 01:40:31;;;;;;;5.22;3.72;;;2.90;99.00;;;;;;4997729;28;20113;-69
2021/11/27 01:42:56;;;;;;;4.47;3.60;;;2.90;98.90;;;;;;5008718;28;20125;-70
2021/11/27 01:45:23;;;;;;;5.63;3.28;;;2.90;98.90;;;;;;5000979;28;20075;-71
2021/11/27 01:48:00;;;;;;;5.68;3.50;;;2.90;98.90;;;;;;5001545;28;20486;-70
2021/11/27 01:50:28;;;;;;;5.97;3.38;;;2.90;98.80;;;;;;5007236;28;20053;-69
2021/11/27 01:52:54;;;;;;;5.32;3.80;;;3.00;98.80;;;;;;5008357;28;20030;-70
2021/11/27 01:55:20;;;;;;;4.30;3.20;;;2.90;98.80;;;;;;5008104;28;20018;-70
2021/11/27 01:57:46;;;;;;;7.07;3.63;;;3.00;98.80;;;;;;5074796;28;20465;-70
2021/11/27 02:00:16;;;;;;;5.05;3.33;;;3.00;98.70;;;;;;5006970;28;20033;-70
2021/11/27 02:02:42;;;;;;;4.32;3.08;;;3.00;98.70;;;;;;5008000;28;20397;-70
2021/11/27 02:05:09;;;;;;;6.35;3.35;;;3.00;98.70;;;;;;5007561;28;20022;-69
2021/11/27 02:07:34;;;;;;;6.97;3.47;;;3.00;98.60;;;;;;5074259;28;20032;-69
2021/11/27 02:10:00;;;;;;;4.28;3.20;;;3.00;98.60;;;;;;5082182;28;20456;-70
2021/11/27 02:12:26;;;;;;;4.03;3.00;;;3.00;98.60;;;;;;5008084;28;20030;-70
2021/11/27 02:14:51;;;;;;;5.32;2.90;;;3.00;98.50;;;;;;5000520;28;20496;-69
2021/11/27 02:17:17;;;;;;;4.45;3.40;;;3.00;98.50;;;;;;5066085;28;20038;-70
2021/11/27 02:19:44;;;;;;;4.90;3.20;;;3.00;98.50;;;;;;5007243;28;20085;-70
2021/11/27 02:22:10;;;;;;;4.20;3.00;;;3.00;98.40;;;;;;5007259;28;20477;-70
2021/11/27 02:24:37;;;;;;;4.95;3.40;;;2.90;98.40;;;;;;5008083;28;20108;-70
2021/11/27 02:27:02;;;;;;;5.32;3.55;;;2.90;98.40;;;;;;5074101;28;20137;-70
2021/11/27 02:29:32;;;;;;;4.47;3.15;;;2.90;98.40;;;;;;5005090;28;20101;-70
2021/11/27 02:31:59;;;;;;;4.25;3.30;;;2.90;98.40;;;;;;5007288;28;20521;-70
2021/11/27 02:34:26;;;;;;;4.72;3.10;;;2.90;98.40;;;;;;5004438;28;20032;-69
2021/11/27 02:37:12;;;;;;;5.60;3.50;;;2.90;98.40;;;;;;5074644;28;20026;-70
2021/11/27 02:39:38;;;;;;;6.30;3.47;;;2.90;98.50;;;;;;5006929;28;20442;-70
2021/11/27 02:42:06;;;;;;;5.00;3.20;;;2.90;98.40;;;;;;5075129;28;20026;-70
2021/11/27 02:44:34;;;;;;;4.70;2.90;;;2.90;98.40;;;;;;5001207;28;20091;-70
2021/11/27 02:47:00;;;;;;;5.10;3.20;;;3.00;98.40;;;;;;5005214;28;20022;-70
2021/11/27 02:49:26;;;;;;;5.63;3.20;;;3.00;98.40;;;;;;5005548;28;20030;-70
2021/11/27 02:51:53;;;;;;;4.47;3.22;;;3.00;98.40;;;;;;5007197;28;20476;-70
2021/11/27 02:54:20;;;;;;;4.50;3.35;;;3.00;98.40;;;;;;5007090;28;20026;-70
2021/11/27 02:56:47;;;;;;;4.75;3.42;;;3.00;98.40;;;;;;5007197;28;20030;-70
2021/11/27 02:59:20;;;;;;;3.40;2.60;;;3.00;98.30;;;;;;5005845;28;20053;-70
2021/11/27 03:01:49;;;;;;;3.88;2.92;;;3.00;98.30;;;;;;4997477;28;20088;-70
2021/11/27 03:04:15;;;;;;;4.93;3.35;;;3.10;98.30;;;;;;5006426;28;20041;-70
2021/11/27 03:06:42;;;;;;;4.68;3.33;;;3.00;98.30;;;;;;5006619;28;20025;-70
2021/11/27 03:09:09;;;;;;;3.65;2.92;;;3.00;98.30;;;;;;5001090;28;20092;-70
2021/11/27 03:11:36;;;;;;;4.55;2.92;;;3.10;98.30;;;;;;5005038;28;20030;-70
2021/11/27 03:14:03;;;;;;;3.72;2.90;;;3.10;98.20;;;;;;5039598;23;20053;-71
2021/11/27 03:16:32;;;;;;;3.72;3.00;;;3.00;98.20;;;;;;5068478;28;20034;-72
2021/11/27 03:18:58;;;;;;;4.38;2.83;;;3.10;98.30;;;;;;5005055;28;20040;-71
2021/11/27 03:21:23;;;;;;;5.00;2.95;;;3.10;98.30;;;;;;5003130;28;20392;-71
2021/11/27 03:23:50;;;;;;;5.63;3.35;;;3.10;98.20;;;;;;4995818;28;20034;-71
2021/11/27 03:26:16;;;;;;;3.65;2.65;;;3.10;98.20;;;;;;5007238;28;20030;-69
2021/11/27 03:28:43;;;;;;;4.97;3.22;;;3.20;98.20;;;;;;5005309;28;20029;-69
2021/11/27 03:31:09;;;;;;;4.80;2.90;;;3.20;98.20;;;;;;5006592;28;20029;-72
2021/11/27 03:33:35;;;;;;;3.60;3.03;;;3.20;98.10;;;;;;5007025;28;20105;-70
2021/11/27 03:36:00;;;;;;;3.33;2.45;;;3.20;98.10;;;;;;5003164;28;20030;-71
2021/11/27 03:38:26;;;;;;;2.65;2.45;;;3.20;98.20;;;;;;5005071;28;20105;-71
2021/11/27 03:40:52;;;;;;;3.20;2.58;;;3.20;98.20;;;;;;5007947;28;20109;-72
2021/11/27 03:43:17;;;;;;;3.20;2.42;;;3.20;98.10;;;;;;5071968;28;20025;-71
2021/11/27 03:45:43;;;;;;;3.22;2.35;;;3.30;98.20;;;;;;5007847;28;20083;-71
2021/11/27 03:48:15;;;;;;;2.08;1.92;;;3.30;98.20;;;;;;5008756;28;20029;-72
2021/11/27 03:50:49;;;;;;;4.20;2.47;;;3.30;98.20;;;;;;5010472;28;20026;-71
2021/11/27 03:53:37;;;;;;;3.25;2.10;;;3.30;98.20;;;;;;5010042;28;20113;-71
2021/11/27 03:56:05;;;;;;;2.40;2.20;;;3.30;98.20;;;;;;5009746;28;20064;-70
2021/11/27 03:58:31;;;;;;;3.42;2.33;;;3.30;98.30;;;;;;5007503;28;20091;-71
2021/11/27 04:00:57;;;;;;;2.40;2.08;;;3.30;98.30;;;;;;5009689;28;20034;-70
2021/11/27 04:03:25;;;;;;;2.13;1.90;;;3.30;98.30;;;;;;5010153;28;20022;-70
2021/11/27 04:05:54;;;;;;;2.38;2.08;;;3.40;98.30;;;;;;5009055;28;20034;-70
2021/11/27 04:08:20;;;;;;;1.90;1.70;;;3.40;98.30;;;;;;5000429;28;20026;-72
2021/11/27 04:10:48;;;;;;;3.25;1.83;;;3.30;98.30;;;;;;5016305;28;20092;-72
2021/11/27 04:13:14;;;;;;;2.00;1.80;;;3.40;98.30;;;;;;5002924;28;20033;-71
2021/11/27 04:15:40;;;;;;;1.63;1.52;;;3.40;98.30;;;;;;4999854;28;20049;-72
2021/11/27 04:18:06;;;;;;;3.47;2.03;;;3.40;98.50;;;;;;5009297;28;20030;-72
2021/11/27 04:20:32;;;;;;;1.90;1.67;;;3.40;98.30;;;;;;5074277;28;20037;-71
2021/11/27 04:22:58;;;;;;;1.90;1.80;;;3.40;98.30;;;;;;5078101;28;20034;-71
2021/11/27 04:25:23;;;;;;;2.72;2.13;;;3.40;98.30;;;;;;5009392;28;20029;-71
2021/11/27 04:27:49;;;;;;;2.47;1.92;;;3.40;98.30;;;;;;5007946;28;20452;-69
2021/11/27 04:30:22;;;;;;;3.10;2.28;;;3.40;98.30;;;;;;5007362;28;20021;-70
2021/11/27 04:32:48;;;;;;;2.92;2.22;;;3.30;98.20;;;;;;5009830;28;20036;-71
2021/11/27 04:35:16;;;;;;;2.95;2.05;;;3.30;98.20;;;;;;5000565;28;20398;-71
2021/11/27 04:37:42;;;;;;;2.45;2.00;;;3.30;98.20;;;;;;5032471;28;20064;-70
2021/11/27 04:40:08;;;;;;;2.80;2.20;;;3.30;98.30;;;;;;5007505;28;20030;-70
2021/11/27 04:42:34;;;;;;;2.28;2.08;;;3.30;98.30;;;;;;5009361;28;20037;-70
2021/11/27 04:45:02;;;;;;;3.28;2.20;;;3.20;98.30;;;;;;5008841;28;20569;-71
2021/11/27 04:47:28;;;;;;;3.15;2.80;;;3.20;98.30;;;;;;5069290;28;20497;-70
2021/11/27 04:49:53;;;;;;;4.75;2.85;;;3.20;98.40;;;;;;5008778;28;20083;-71
2021/11/27 04:52:20;;;;;;;5.97;2.90;;;3.10;98.40;;;;;;5008657;28;20208;-72
2021/11/27 04:54:47;;;;;;;3.53;3.08;;;3.10;98.40;;;;;;5009329;28;20030;-71
2021/11/27 04:57:12;;;;;;;6.45;3.92;;;3.00;98.50;;;;;;5075287;28;20026;-70
2021/11/27 04:59:39;;;;;;;5.80;3.83;;;2.90;98.50;;;;;;5076951;28;20438;-69
2021/11/27 05:02:05;;;;;;;6.65;3.42;;;2.90;98.50;;;;;;5009006;28;20030;-71
2021/11/27 05:04:31;;;;;;;6.90;4.18;;;2.90;98.60;;;;;;5008466;28;20029;-71
2021/11/27 05:06:57;;;;;;;5.43;3.78;;;2.80;98.70;;;;;;5004450;28;20105;-70
2021/11/27 05:09:23;;;;;;;6.55;4.43;;;2.80;98.80;;;;;;5003679;28;20096;-73
2021/11/27 05:11:48;;;;;;;5.50;4.25;;;2.80;98.90;;;;;;5008042;28;20113;-70
2021/11/27 05:14:14;;;;;;;5.57;3.75;;;2.70;98.90;;;;;;5009114;28;20106;-71
2021/11/27 05:16:40;;;;;;;5.38;4.22;;;2.70;99.00;;;;;;5076837;28;20025;-71
2021/11/27 05:19:05;;;;;;;6.82;4.07;;;2.70;99.00;;;;;;5007267;28;20121;-70
2021/11/27 05:21:31;;;;;;;6.50;4.10;;;2.70;99.10;;;;;;5008078;28;20157;-71
2021/11/27 05:23:57;;;;;;;6.13;4.00;;;2.60;99.10;;;;;;5008903;28;20026;-71
2021/11/27 05:26:23;;;;;;;5.65;4.03;;;2.60;99.20;;;;;;5005638;28;20550;-71
2021/11/27 05:28:49;;;;;;;6.13;3.95;;;2.60;99.30;;;;;;5008188;28;20096;-69
2021/11/27 05:31:16;;;;;;;8.20;4.15;;;2.60;99.40;;;;;;5011563;28;20026;-70
2021/11/27 05:36:13;;;;;;;4.97;3.55;;;2.60;99.40;;;;;;5001781;28;20026;-71
2021/11/27 05:38:39;;;;;;;5.78;3.85;;;2.60;99.40;;;;;;5070176;28;20075;-69
2021/11/27 05:41:06;;;;;;;5.90;4.50;;;2.60;99.50;;;;;;5020739;28;20038;-71
2021/11/27 05:43:32;;;;;;;6.55;4.03;;;2.60;99.50;;;;;;5009455;28;20529;-71
2021/11/27 05:45:58;;;;;;;7.38;4.70;;;2.60;99.50;;;;;;5076077;28;20116;-71
2021/11/27 05:48:24;;;;;;;5.53;4.00;;;2.50;99.60;;;;;;5007126;28;20041;-71
2021/11/27 05:50:50;;;;;;;5.93;4.32;;;2.50;99.60;;;;;;5008273;28;20856;-70
2021/11/27 05:53:18;;;;;;;9.95;5.32;;;2.50;99.70;;;;;;5075727;28;20030;-69
2021/11/27 05:55:46;;;;;;;7.45;4.72;;;2.40;99.60;;;;;;5007826;28;20037;-70
2021/11/27 05:58:12;;;;;;;9.02;5.38;;;2.40;99.60;;;;;;5007065;28;20026;-69
2021/11/27 06:00:38;;;;;;;7.85;5.00;;;2.30;99.70;;;;;;5007862;28;20030;-70
2021/11/27 06:03:03;;;;;;;7.57;5.20;;;2.30;99.70;;;;;;5007872;28;20045;-71
2021/11/27 06:05:29;;;;;;;8.65;5.43;;;2.30;99.80;;;;;;5006450;28;20038;-71
2021/11/27 06:07:56;;;;;;;8.32;5.57;;;2.30;99.80;;;;;;5005531;28;20158;-71
2021/11/27 06:10:21;;;;;;;8.98;5.93;;;2.20;99.80;;;;;;5005219;28;20036;-71
2021/11/27 06:12:47;;;;;;;9.68;5.95;;;2.20;99.90;;;;;;5074711;28;20124;-71
2021/11/27 06:15:13;;;;;;;8.95;5.85;;;2.20;99.90;;;;;;5075899;28;20026;-70
2021/11/27 06:17:39;;;;;;;9.00;5.43;;;2.10;99.90;;;;;;5007061;28;20030;-70
2021/11/27 06:20:05;;;;;;;8.02;5.57;;;2.10;99.90;;;;;;5010666;28;20117;-72
2021/11/27 06:22:31;;;;;;;9.45;5.47;;;2.10;99.90;;;;;;5076007;28;20034;-72
2021/11/27 06:24:58;;;;;;;10.27;5.78;;;2.00;99.90;;;;;;5009632;28;20085;-72
2021/11/27 06:27:24;;;;;;;8.45;5.57;;;2.00;99.90;;;;;;5000693;28;20065;-72
2021/11/27 06:29:50;;;;;;;10.75;5.45;;;2.00;99.90;;;;;;5004604;28;20029;-73
2021/11/27 06:32:21;;;;;;;9.40;5.60;;;2.00;99.90;;;;;;5007172;28;20018;-71
2021/11/27 06:34:47;;;;;;;9.67;5.83;;;2.00;99.90;;;;;;5007844;28;20025;-72
2021/11/27 06:37:13;;;;;;;7.88;5.07;;;2.00;99.90;;;;;;5069588;28;20022;-71
2021/11/27 06:39:38;;;;;;;8.18;5.18;;;2.00;99.90;;;;;;4993838;28;20116;-72
2021/11/27 06:42:05;;;;;;;6.65;4.90;;;2.00;99.90;;;;;;5010294;28;20022;-75
2021/11/27 06:44:31;;;;;;;6.55;5.05;;;1.90;99.90;;;;;;5007941;28;20026;-71
2021/11/27 06:46:56;;;;;;;8.55;5.63;;;1.90;99.90;;;;;;5006548;28;20689;-71
2021/11/27 06:49:22;;;;;;;7.90;5.03;;;1.90;99.90;;;;;;5006700;28;20069;-71
2021/11/27 06:51:48;;;;;;;11.30;6.72;;;1.90;99.90;;;;;;5006515;28;20026;-71
2021/11/27 06:54:14;;;;;;;8.27;5.25;;;1.90;99.90;;;;;;5007429;28;20508;-72
2021/11/27 06:56:39;;;;;;;8.20;5.22;;;1.90;99.90;;;;;;5007986;28;20034;-73
2021/11/27 06:59:05;;;;;;;19.77;8.70;;;1.90;99.90;;;;;;5073805;28;20029;-70
2021/11/27 07:01:30;;;;;;;20.70;10.75;;;2.00;99.90;;;;;;5006197;28;20044;-71
2021/11/27 07:03:56;;;;;;;16.85;8.90;;;2.00;99.90;;;;;;5014308;28;20033;-71
2021/11/27 07:06:21;;;;;;;12.02;6.80;;;2.00;99.90;;;;;;5003778;28;20037;-76
2021/11/27 07:08:47;;;;;;;13.20;7.43;;;2.00;99.90;;;;;;4996546;28;20025;-71
2021/11/27 07:11:13;;;;;;;9.60;6.10;;;2.00;99.90;;;;;;5009777;28;20034;-69
2021/11/27 07:13:39;;;;;;;14.80;8.05;;;2.00;99.90;;;;;;5062511;28;20444;-70
2021/11/27 07:16:05;;;;;;;12.02;6.50;;;2.00;99.90;;;;;;4990462;28;20019;-72
2021/11/27 07:18:31;;;;;;;22.42;11.27;;;2.00;99.90;;;;;;5070577;28;20117;-71
2021/11/27 07:20:57;;;;;;;13.20;7.50;;;2.00;99.90;;;;;;5073883;28;20533;-71
2021/11/27 07:23:22;;;;;;;17.20;9.68;;;2.00;99.90;;;;;;5005769;28;20123;-69
2021/11/27 07:25:48;;;;;;;12.40;7.80;;;2.10;99.90;;;;;;5002673;28;20034;-71
2021/11/27 07:28:14;;;;;;;11.02;5.55;;;2.10;99.90;;;;;;4996970;28;20541;-71
2021/11/27 07:30:39;;;;;;;7.00;4.90;;;2.10;99.90;;;;;;5003559;28;20037;-71
2021/11/27 07:33:05;;;;;;;7.13;4.97;;;2.10;99.90;;;;;;5066999;28;20036;-71
2021/11/27 07:35:31;;;;;;;10.95;6.13;;;2.10;99.90;;;;;;4998180;28;20046;-71
2021/11/27 07:37:57;;;;;;;6.68;4.75;;;2.20;99.90;;;;;;5001918;28;20526;-71
2021/11/27 07:40:23;;;;;;;8.68;5.68;;;2.20;99.90;;;;;;4997547;28;20050;-71
2021/11/27 07:42:50;;;;;;;7.35;4.75;;;2.20;99.90;;;;;;5006623;28;20037;-71
2021/11/27 07:45:16;;;;;;;9.77;6.03;;;2.20;99.90;;;;;;5006201;28;20026;-71
2021/11/27 07:47:42;;;;;;;15.63;9.95;;;2.20;99.90;;;;;;5072305;28;20030;-70
2021/11/27 07:50:09;;;;;;;7.80;5.78;;;2.20;99.90;;;;;;5005385;28;20026;-70
2021/11/27 07:52:34;;;;;;;7.68;4.65;;;2.20;99.90;;;;;;5001238;28;20535;-70
2021/11/27 07:55:00;;;;;;;6.18;4.47;;;2.20;99.90;;;;;;4999808;28;20030;-71
2021/11/27 07:57:25;;;;;;;8.93;4.07;;;2.30;99.90;;;;;;5005730;28;20026;-70
2021/11/27 07:59:51;;;;;;;6.90;4.25;;;2.30;99.90;;;;;;5005867;28;20101;-71
2021/11/27 08:02:17;;;;;;;5.95;4.25;;;2.20;99.90;;;;;;5041588;28;20026;-71
2021/11/27 08:04:42;;;;;;;5.95;4.18;;;2.30;99.90;;;;;;5006648;28;20026;-71
2021/11/27 08:07:08;;;;;;;5.95;3.63;;;2.30;99.90;;;;;;5004113;28;20094;-71
2021/11/27 08:09:33;;;;;;;5.10;3.90;;;2.30;99.90;;;;;;5005005;28;20065;-71
2021/11/27 08:12:00;;;;;;;5.50;3.70;;;2.30;99.90;;;;;;5002209;28;20023;-72
2021/11/27 08:14:31;;;;;;;6.90;3.90;;;2.40;99.90;;;;;;5073846;28;20038;-71
2021/11/27 08:16:58;;;;;;;6.47;3.90;;;2.40;99.90;;;;;;5004199;28;20219;-70
2021/11/27 08:19:24;;;;;;;6.40;3.95;;;2.40;99.90;;;;;;4999125;28;20034;-71
2021/11/27 08:21:49;;;;;;;8.77;4.25;;;2.40;99.90;;;;;;4996670;28;20030;-71
2021/11/27 08:24:15;;;;;;;6.72;3.90;;;2.40;99.90;;;;;;5003817;28;20040;-71
2021/11/27 08:26:40;;;;;;;6.18;4.13;;;2.40;99.90;;;;;;4995882;28;20113;-71
2021/11/27 08:29:07;;;;;;;6.30;3.97;;;2.50;99.90;;;;;;5002589;28;20029;-71
2021/11/27 08:31:33;;;;;;;5.68;3.67;;;2.50;99.90;;;;;;5074925;28;20026;-71
2021/11/27 08:33:59;;;;;;;8.00;3.75;;;2.50;99.90;;;;;;5006036;28;20025;-71
2021/11/27 08:36:25;;;;;;;6.30;3.60;;;2.50;99.90;;;;;;5002828;28;20053;-70
2021/11/27 08:38:50;;;;;;;4.60;3.72;;;2.60;99.90;;;;;;5038010;28;20053;-71
2021/11/27 08:41:16;;;;;;;7.55;3.97;;;2.60;99.90;;;;;;5007700;28;20075;-71
2021/11/27 08:43:42;;;;;;;6.38;3.75;;;2.60;99.90;;;;;;5000658;28;20037;-71
2021/11/27 08:46:08;;;;;;;4.72;3.30;;;2.70;99.90;;;;;;5029582;28;20031;-71
2021/11/27 08:48:37;;;;;;;4.82;3.30;;;2.70;99.90;;;;;;5001116;28;20046;-71
2021/11/27 08:51:05;;;;;;;5.85;3.67;;;2.80;99.90;;;;;;5006091;28;20072;-71
2021/11/27 08:53:31;;;;;;;3.97;3.22;;;2.80;99.90;;;;;;5006758;28;20106;-69
2021/11/27 08:55:57;;;;;;;4.30;3.00;;;2.90;99.90;;;;;;5005190;28;20097;-70
2021/11/27 08:58:23;;;;;;;5.53;3.38;;;2.90;99.90;;;;;;4994897;28;20030;-71
2021/11/27 09:00:49;;;;;;;5.85;3.40;;;3.00;99.90;;;;;;5045157;28;20018;-75
2021/11/27 09:03:15;;;;;;;7.10;3.90;;;3.00;99.90;;;;;;5005192;28;20026;-76
2021/11/27 09:05:40;;;;;;;5.35;3.53;;;3.10;99.90;;;;;;5070118;28;20037;-76
2021/11/27 09:08:06;;;;;;;7.53;5.13;;;3.10;99.90;;;;;;5006972;28;20022;-76
2021/11/27 09:10:33;;;;;;;7.05;3.55;;;3.20;99.90;;;;;;5063882;28;20079;-76
2021/11/27 09:12:59;;;;;;;5.13;3.28;;;3.30;99.90;;;;;;5104328;22;20492;-89
2021/11/27 09:15:25;;;;;;;5.65;3.40;;;3.30;99.90;;;;;;5100697;27;20029;-90
2021/11/27 09:17:51;;;;;;;5.90;4.03;;;3.40;99.90;;;;;;5092503;28;20420;-90
2021/11/27 09:20:17;;;;;;;6.00;3.70;;;3.50;99.90;;;;;;5096617;28;20036;-90
2021/11/27 09:22:43;;;;;;;3.47;2.97;;;3.50;99.90;;;;;;5099564;28;20033;-91
2021/11/27 09:25:11;;;;;;;3.80;2.90;;;3.60;99.90;;;;;;5094790;28;20271;-90
2021/11/27 09:27:37;;;;;;;4.40;2.92;;;3.70;99.90;;;;;;5073738;28;20034;-90
2021/11/27 09:30:08;;;;;;;4.55;3.67;;;3.70;99.90;;;;;;5088899;28;20114;-91
2021/11/27 09:32:35;;;;;;;2.75;1.77;;;3.80;99.90;;;;;;5014609;28;20017;-90
2021/11/27 09:35:02;;;;;;;4.10;2.60;;;3.80;99.90;;;;;;5092809;28;20082;-90
2021/11/27 09:37:28;;;;;;;3.70;2.20;;;3.90;99.90;;;;;;5093830;28;20025;-89
2021/11/27 09:39:54;;;;;;;2.50;2.10;;;3.90;99.90;;;;;;5028922;28;20036;-90
2021/11/27 09:42:20;;;;;;;2.30;2.10;;;3.90;99.90;;;;;;5100434;28;20036;-88
2021/11/27 09:44:49;;;;;;;2.45;1.85;;;3.90;99.90;;;;;;5122126;27;20013;-90
2021/11/27 09:47:16;;;;;;;5.80;3.65;;;4.00;99.90;;;;;;5115346;28;20020;-89
2021/11/27 09:49:43;;;;;;;2.38;1.90;;;4.00;99.90;;;;;;5117166;28;20194;-88
2021/11/27 09:52:10;;;;;;;2.70;2.47;;;4.00;99.90;;;;;;5098663;28;20025;-90
2021/11/27 09:54:36;;;;;;;2.90;2.60;;;4.10;99.90;;;;;;5090715;28;20571;-90
2021/11/27 09:57:06;;;;;;;3.78;2.97;;;4.10;99.90;;;;;;5098958;28;20025;-90
2021/11/27 09:59:33;;;;;;;3.95;2.40;;;4.20;99.90;;;;;;5098219;28;20037;-90
2021/11/27 10:02:01;;;;;;;3.78;2.33;;;4.20;99.90;;;;;;5098043;28;20025;-90
2021/11/27 10:04:31;;;;;;;3.22;2.40;;;4.30;99.90;;;;;;5088868;28;20034;-89
2021/11/27 10:06:59;;;;;;;3.97;2.88;;;4.30;99.90;;;;;;5086118;28;20029;-90
2021/11/27 10:09:25;;;;;;;2.88;2.15;;;4.40;99.90;;;;;;5081222;28;20037;-90
2021/11/27 10:11:52;;;;;;;26.83;15.82;;;4.40;99.90;;;;;;5079794;28;20018;-90
2021/11/27 10:14:19;;;;;;;2.53;2.17;;;4.50;99.90;;;;;;5094001;28;20123;-89
2021/11/27 10:16:57;;;;;;;1.70;1.60;;;4.60;99.90;;;;;;5098284;28;20032;-91
2021/11/27 10:19:24;;;;;;;2.30;1.83;;;4.60;99.90;;;;;;5097805;28;20036;-90
2021/11/27 10:21:55;;;;;;;2.60;2.35;;;4.60;99.90;;;;;;5096371;28;20133;-90
2021/11/27 10:24:23;;;;;;;3.33;2.55;;;4.60;99.90;;;;;;5079135;28;20515;-90
2021/11/27 10:26:52;;;;;;;8.73;2.72;;;4.60;99.90;;;;;;5093278;28;20029;-90
2021/11/27 10:29:34;;;;;;;1.63;1.50;;;4.70;99.90;;;;;;5082432;28;20036;-90
2021/11/27 10:32:08;;;;;;;2.55;1.77;;;4.70;99.90;;;;;;5089430;28;20447;-90
2021/11/27 10:34:35;;;;;;;1.52;1.30;;;4.70;99.90;;;;;;5096811;28;20048;-90
2021/11/27 10:37:02;;;;;;;1.48;1.38;;;4.70;99.90;;;;;;5095286;28;20070;-91
2021/11/27 10:39:27;;;;;;;1.38;1.27;;;4.70;99.90;;;;;;5092564;28;20382;-89
2021/11/27 10:42:10;;;;;;;1.52;1.40;;;4.60;99.90;;;;;;5080873;28;20026;-89
2021/11/27 10:44:37;;;;;;;1.70;1.50;;;4.70;99.90;;;;;;5085670;28;20037;-89
2021/11/27 10:47:09;;;;;;;2.72;2.30;;;4.70;99.90;;;;;;5098781;28;20521;-91
2021/11/27 10:49:36;;;;;;;3.45;2.28;;;4.70;99.90;;;;;;5098224;28;20129;-90
2021/11/27 10:52:16;;;;;;;1.95;1.48;;;4.70;99.90;;;;;;5119153;28;20040;-88
2021/11/27 10:55:13;;;;;;;4.88;1.80;;;4.80;99.90;;;;;;5121038;28;20016;-88
2021/11/27 10:57:39;;;;;;;1.65;1.50;;;4.80;99.90;;;;;;5120036;28;20029;-88
2021/11/27 11:00:10;;;;;;;2.88;2.00;;;4.80;99.90;;;;;;5099148;28;20038;-90
2021/11/27 11:02:38;;;;;;;1.55;1.45;;;4.90;99.90;;;;;;5096877;28;20034;-90
2021/11/27 11:05:11;;;;;;;1.88;1.77;;;4.90;99.90;;;;;;5097120;28;20029;-90
2021/11/27 11:07:38;;;;;;;1.40;1.30;;;4.90;99.90;;;;;;5095191;28;20109;-90
2021/11/27 11:10:08;;;;;;;1.55;1.27;;;4.90;99.90;;;;;;5108603;28;20042;-90
2021/11/27 11:12:48;;;;;;;1.73;1.50;;;4.90;99.90;;;;;;5097162;28;20021;-90
2021/11/27 11:15:30;;;;;;;2.10;1.60;;;4.90;99.90;;;;;;5093126;28;20018;-89
2021/11/27 11:18:05;;;;;;;;;;;4.90;99.90;;;;;;5098431;28;20108;-90
2021/11/27 11:20:31;;;;;;;3.20;1.80;;;4.90;99.90;;;;;;5097271;28;19990;-90
2021/11/27 11:23:06;;;;;;;1.60;1.50;;;5.00;99.90;;;;;;5097601;28;20459;-90
2021/11/27 11:25:34;;;;;;;2.08;1.48;;;4.90;99.90;;;;;;5097143;28;20128;-90
2021/11/27 11:28:14;;;;;;;1.00;1.00;;;5.00;99.90;;;;;;5053648;28;20025;-90
2021/11/27 11:30:44;;;;;;;1.45;1.35;;;5.00;99.90;;;;;;5096780;28;20037;-90
2021/11/27 11:33:10;;;;;;;1.05;1.00;;;5.00;99.90;;;;;;5098790;28;20086;-90
2021/11/27 11:35:36;;;;;;;1.65;1.10;;;5.00;99.90;;;;;;5096636;28;20220;-90
2021/11/27 11:38:07;;;;;;;1.40;1.30;;;5.00;99.90;;;;;;5096766;28;20468;-90
2021/11/27 11:40:33;;;;;;;0.95;0.95;;;5.10;99.90;;;;;;5094516;28;20102;-89
2021/11/27 11:43:00;;;;;;;1.50;1.38;;;5.10;99.90;;;;;;5079994;28;20030;-90
2021/11/27 11:45:26;;;;;;;1.70;1.60;;;5.00;99.90;;;;;;5088046;28;20528;-90
2021/11/27 11:47:52;;;;;;;1.52;1.20;;;5.10;99.90;;;;;;5097254;28;20034;-90
2021/11/27 11:50:22;;;;;;;1.05;1.05;;;5.10;99.90;;;;;;5096398;28;20037;-90
2021/11/27 11:52:56;;;;;;;1.52;1.20;;;5.00;99.90;;;;;;5098882;28;20074;-90
2021/11/27 11:55:22;;;;;;;2.03;1.55;;;5.00;99.90;;;;;;5096822;28;20397;-90
2021/11/27 11:57:56;;;;;;;2.60;1.20;;;5.00;99.90;;;;;;5096905;28;20116;-90
2021/11/27 12:00:38;;;;;;;1.40;1.30;;;5.00;99.90;;;;;;5100235;28;20110;-90
2021/11/27 12:03:10;;;;;;;1.65;1.25;;;5.00;99.90;;;;;;5081249;28;20030;-90
2021/11/27 12:05:53;;;;;;;3.67;1.80;;;4.90;99.90;;;;;;5091636;28;20505;-88
2021/11/27 12:08:45;;;;;;;5.82;3.33;;;5.00;99.90;;;;;;5023152;28;20423;-88
2021/11/27 12:11:39;;;;;;;1.77;1.33;;;5.00;99.90;;;;;;5090264;28;20553;-91
2021/11/27 12:14:20;;;;;;;3.03;1.60;;;5.00;99.90;;;;;;5100254;28;20038;-91
2021/11/27 12:17:14;;;;;;;2.30;2.10;;;5.00;99.90;;;;;;5096218;28;20033;-90
2021/11/27 12:20:04;;;;;;;2.83;1.40;;;5.10;99.90;;;;;;5095690;28;20086;-90
2021/11/27 12:22:37;;;;;;;2.22;1.70;;;5.10;99.90;;;;;;5085957;28;20432;-89
2021/11/27 12:25:25;;;;;;;1.95;1.35;;;5.00;99.90;;;;;;5100354;28;20025;-90
2021/11/27 12:28:01;;;;;;;1.33;1.23;;;5.10;99.90;;;;;;5098956;28;20519;-90
2021/11/27 12:30:31;;;;;;;2.30;1.30;;;5.10;99.90;;;;;;5096810;28;20385;-90
2021/11/27 12:32:57;;;;;;;2.65;1.90;;;5.10;99.90;;;;;;5099376;28;20025;-89
2021/11/27 12:35:30;;;;;;;2.78;1.80;;;5.10;99.90;;;;;;5100118;28;20026;-90
2021/11/27 12:38:08;;;;;;;2.65;1.98;;;5.10;99.90;;;;;;5099119;28;20059;-90
2021/11/27 12:40:42;;;;;;;2.63;2.03;;;5.10;99.90;;;;;;5086407;28;20064;-90
2021/11/27 12:43:09;;;;;;;7.75;5.30;;;5.10;99.90;;;;;;5099670;28;20097;-90
2021/11/27 12:45:38;;;;;;;5.78;3.85;;;5.10;99.90;;;;;;5092037;28;20034;-90
2021/11/27 12:48:39;;;;;;;5.00;2.55;;;5.10;99.90;;;;;;5100282;28;20053;-90
2021/11/27 12:51:17;;;;;;;1.95;1.60;;;5.10;99.90;;;;;;5010384;28;20053;-89
2021/11/27 12:53:58;;;;;;;3.42;1.48;;;5.00;99.90;;;;;;5087381;28;20034;-90
2021/11/27 12:56:24;;;;;;;4.78;3.10;;;5.00;99.90;;;;;;5111490;27;20029;-90
2021/11/27 12:58:50;;;;;;;4.05;2.50;;;4.90;99.90;;;;;;5091226;28;20063;-90
2021/11/27 13:01:33;;;;;;;4.18;2.10;;;4.90;99.90;;;;;;5094353;28;20030;-90